Aviation Digital Data Service (ADDS)

Output produced by TAFs form (2353 UTC 19 October 2017)
found at http://aviationweather.gov/adds/tafs/
 
KDMN 192328Z 2000/2024 26008KT P6SM VCTS SCT080CB BKN150 
     TEMPO 2000/2003 VRB25G40KT 3SM TSRA BKN040CB BKN100 
     FM200400 06005KT P6SM SCT060 BKN150 
     FM201500 23008KT P6SM FEW150 
     FM202000 25016G26KT P6SM SKC